sensor_id;sensor_type;location;lat;lon;timestamp;P1;durP1;ratioP1;P2;durP2;ratioP2
45466;SDS011;31212;49.734;8.490;2023-03-01T00:01:13;12.50;;;3.43;;
45466;SDS011;31212;49.734;8.490;2023-03-01T00:03:42;6.53;;;3.33;;
45466;SDS011;31212;49.734;8.490;2023-03-01T00:06:08;10.07;;;3.90;;
45466;SDS011;31212;49.734;8.490;2023-03-01T00:08:35;7.17;;;2.63;;
45466;SDS011;31212;49.734;8.490;2023-03-01T00:11:04;5.10;;;2.37;;
45466;SDS011;31212;49.734;8.490;2023-03-01T00:13:32;5.83;;;2.50;;
45466;SDS011;31212;49.734;8.490;2023-03-01T00:16:01;9.20;;;3.97;;
45466;SDS011;31212;49.734;8.490;2023-03-01T00:18:28;4.63;;;2.70;;
45466;SDS011;31212;49.734;8.490;2023-03-01T00:20:55;4.50;;;2.67;;
45466;SDS011;31212;49.734;8.490;2023-03-01T00:23:22;6.43;;;2.40;;
45466;SDS011;31212;49.734;8.490;2023-03-01T00:25:49;3.13;;;2.83;;
45466;SDS011;31212;49.734;8.490;2023-03-01T00:28:17;11.87;;;3.37;;
45466;SDS011;31212;49.734;8.490;2023-03-01T00:30:45;4.53;;;2.60;;
45466;SDS011;31212;49.734;8.490;2023-03-01T00:33:11;6.73;;;4.07;;
45466;SDS011;31212;49.734;8.490;2023-03-01T00:35:38;5.53;;;2.97;;
45466;SDS011;31212;49.734;8.490;2023-03-01T00:38:05;5.13;;;1.97;;
45466;SDS011;31212;49.734;8.490;2023-03-01T00:40:33;2.63;;;1.93;;
45466;SDS011;31212;49.734;8.490;2023-03-01T00:43:01;8.37;;;4.43;;
45466;SDS011;31212;49.734;8.490;2023-03-01T00:45:30;5.70;;;2.77;;
45466;SDS011;31212;49.734;8.490;2023-03-01T00:47:57;9.77;;;4.03;;
45466;SDS011;31212;49.734;8.490;2023-03-01T00:50:23;9.03;;;3.07;;
45466;SDS011;31212;49.734;8.490;2023-03-01T00:52:51;7.00;;;3.47;;
45466;SDS011;31212;49.734;8.490;2023-03-01T00:55:18;10.47;;;4.67;;
45466;SDS011;31212;49.734;8.490;2023-03-01T00:57:45;8.87;;;3.73;;
45466;SDS011;31212;49.734;8.490;2023-03-01T01:00:12;8.53;;;4.13;;
45466;SDS011;31212;49.734;8.490;2023-03-01T01:02:40;5.87;;;2.87;;
45466;SDS011;31212;49.734;8.490;2023-03-01T01:05:07;8.23;;;3.97;;
45466;SDS011;31212;49.734;8.490;2023-03-01T01:07:34;3.77;;;2.57;;
45466;SDS011;31212;49.734;8.490;2023-03-01T01:10:01;9.73;;;2.90;;
45466;SDS011;31212;49.734;8.490;2023-03-01T01:12:27;6.67;;;4.00;;
45466;SDS011;31212;49.734;8.490;2023-03-01T01:14:54;5.40;;;2.93;;
45466;SDS011;31212;49.734;8.490;2023-03-01T01:17:20;4.67;;;2.37;;
45466;SDS011;31212;49.734;8.490;2023-03-01T01:19:48;6.83;;;3.47;;
45466;SDS011;31212;49.734;8.490;2023-03-01T01:22:14;4.57;;;2.87;;
45466;SDS011;31212;49.734;8.490;2023-03-01T01:24:42;7.07;;;3.07;;
45466;SDS011;31212;49.734;8.490;2023-03-01T01:27:08;10.97;;;3.23;;
45466;SDS011;31212;49.734;8.490;2023-03-01T01:29:35;4.90;;;3.50;;
45466;SDS011;31212;49.734;8.490;2023-03-01T01:32:02;12.97;;;4.10;;
45466;SDS011;31212;49.734;8.490;2023-03-01T01:34:29;13.17;;;3.10;;
45466;SDS011;31212;49.734;8.490;2023-03-01T01:36:57;4.93;;;2.63;;
45466;SDS011;31212;49.734;8.490;2023-03-01T01:39:27;8.37;;;4.30;;
45466;SDS011;31212;49.734;8.490;2023-03-01T01:41:54;8.13;;;3.43;;
45466;SDS011;31212;49.734;8.490;2023-03-01T01:44:21;5.87;;;3.17;;
45466;SDS011;31212;49.734;8.490;2023-03-01T01:46:49;4.37;;;3.27;;
45466;SDS011;31212;49.734;8.490;2023-03-01T01:49:20;6.10;;;4.47;;
45466;SDS011;31212;49.734;8.490;2023-03-01T01:51:51;6.83;;;4.17;;
45466;SDS011;31212;49.734;8.490;2023-03-01T01:54:27;8.13;;;3.03;;
45466;SDS011;31212;49.734;8.490;2023-03-01T01:57:00;10.80;;;6.10;;
45466;SDS011;31212;49.734;8.490;2023-03-01T01:59:30;2.83;;;2.23;;
45466;SDS011;31212;49.734;8.490;2023-03-01T02:01:58;5.13;;;3.13;;
45466;SDS011;31212;49.734;8.490;2023-03-01T02:04:27;6.17;;;2.93;;
45466;SDS011;31212;49.734;8.490;2023-03-01T02:06:55;4.40;;;3.43;;
45466;SDS011;31212;49.734;8.490;2023-03-01T02:09:27;6.50;;;3.33;;
45466;SDS011;31212;49.734;8.490;2023-03-01T02:11:54;10.67;;;5.60;;
45466;SDS011;31212;49.734;8.490;2023-03-01T02:14:20;11.53;;;3.70;;
45466;SDS011;31212;49.734;8.490;2023-03-01T02:16:47;6.33;;;3.23;;
45466;SDS011;31212;49.734;8.490;2023-03-01T02:19:22;9.13;;;2.30;;
45466;SDS011;31212;49.734;8.490;2023-03-01T02:22:00;8.77;;;3.67;;
45466;SDS011;31212;49.734;8.490;2023-03-01T02:24:35;3.63;;;2.60;;
45466;SDS011;31212;49.734;8.490;2023-03-01T02:27:10;5.57;;;3.40;;
45466;SDS011;31212;49.734;8.490;2023-03-01T02:29:39;3.80;;;3.03;;
45466;SDS011;31212;49.734;8.490;2023-03-01T02:32:08;4.83;;;4.37;;
45466;SDS011;31212;49.734;8.490;2023-03-01T02:34:35;9.33;;;3.47;;
45466;SDS011;31212;49.734;8.490;2023-03-01T02:37:03;7.73;;;3.80;;
45466;SDS011;31212;49.734;8.490;2023-03-01T02:39:36;5.32;;;3.15;;
45466;SDS011;31212;49.734;8.490;2023-03-01T02:42:07;8.98;;;3.83;;
45466;SDS011;31212;49.734;8.490;2023-03-01T02:44:39;6.77;;;3.17;;
45466;SDS011;31212;49.734;8.490;2023-03-01T02:47:06;4.77;;;3.60;;
45466;SDS011;31212;49.734;8.490;2023-03-01T02:49:33;9.27;;;4.13;;
45466;SDS011;31212;49.734;8.490;2023-03-01T02:52:07;7.23;;;4.23;;
45466;SDS011;31212;49.734;8.490;2023-03-01T02:54:47;14.60;;;3.70;;
45466;SDS011;31212;49.734;8.490;2023-03-01T02:57:17;9.43;;;4.27;;
45466;SDS011;31212;49.734;8.490;2023-03-01T02:59:47;7.03;;;3.27;;
45466;SDS011;31212;49.734;8.490;2023-03-01T03:02:18;5.53;;;4.43;;
45466;SDS011;31212;49.734;8.490;2023-03-01T03:05:06;8.90;;;3.43;;
45466;SDS011;31212;49.734;8.490;2023-03-01T03:07:36;4.97;;;2.37;;
45466;SDS011;31212;49.734;8.490;2023-03-01T03:10:05;10.03;;;4.73;;
45466;SDS011;31212;49.734;8.490;2023-03-01T03:12:34;6.87;;;3.93;;
45466;SDS011;31212;49.734;8.490;2023-03-01T03:15:02;4.63;;;3.10;;
45466;SDS011;31212;49.734;8.490;2023-03-01T03:20:00;5.50;;;4.47;;
45466;SDS011;31212;49.734;8.490;2023-03-01T03:22:27;8.40;;;4.20;;
45466;SDS011;31212;49.734;8.490;2023-03-01T03:24:54;5.00;;;4.07;;
45466;SDS011;31212;49.734;8.490;2023-03-01T03:27:20;9.77;;;3.57;;
45466;SDS011;31212;49.734;8.490;2023-03-01T03:29:47;6.37;;;2.43;;
45466;SDS011;31212;49.734;8.490;2023-03-01T03:32:15;6.97;;;3.37;;
45466;SDS011;31212;49.734;8.490;2023-03-01T03:34:42;5.73;;;3.73;;
45466;SDS011;31212;49.734;8.490;2023-03-01T03:37:08;6.10;;;3.53;;
45466;SDS011;31212;49.734;8.490;2023-03-01T03:39:55;10.30;;;4.77;;
45466;SDS011;31212;49.734;8.490;2023-03-01T03:42:22;6.80;;;3.93;;
45466;SDS011;31212;49.734;8.490;2023-03-01T03:44:48;7.40;;;3.93;;
45466;SDS011;31212;49.734;8.490;2023-03-01T03:47:16;4.67;;;4.07;;
45466;SDS011;31212;49.734;8.490;2023-03-01T03:49:42;9.73;;;3.10;;
45466;SDS011;31212;49.734;8.490;2023-03-01T03:52:09;9.53;;;4.67;;
45466;SDS011;31212;49.734;8.490;2023-03-01T03:54:38;7.80;;;3.50;;
45466;SDS011;31212;49.734;8.490;2023-03-01T03:57:05;5.63;;;3.03;;
45466;SDS011;31212;49.734;8.490;2023-03-01T03:59:32;7.53;;;3.83;;
45466;SDS011;31212;49.734;8.490;2023-03-01T04:01:58;4.77;;;2.73;;
45466;SDS011;31212;49.734;8.490;2023-03-01T04:04:26;15.53;;;5.27;;
45466;SDS011;31212;49.734;8.490;2023-03-01T04:06:53;3.23;;;2.93;;
45466;SDS011;31212;49.734;8.490;2023-03-01T04:09:19;4.70;;;2.90;;
45466;SDS011;31212;49.734;8.490;2023-03-01T04:11:46;7.57;;;3.40;;
45466;SDS011;31212;49.734;8.490;2023-03-01T04:14:12;4.60;;;3.03;;
45466;SDS011;31212;49.734;8.490;2023-03-01T04:16:39;5.40;;;3.23;;
45466;SDS011;31212;49.734;8.490;2023-03-01T04:19:06;9.17;;;4.67;;
45466;SDS011;31212;49.734;8.490;2023-03-01T04:21:35;7.50;;;3.70;;
45466;SDS011;31212;49.734;8.490;2023-03-01T04:24:02;5.97;;;3.80;;
45466;SDS011;31212;49.734;8.490;2023-03-01T04:29:00;17.10;;;7.27;;
45466;SDS011;31212;49.734;8.490;2023-03-01T04:31:26;3.40;;;2.37;;
45466;SDS011;31212;49.734;8.490;2023-03-01T04:33:54;6.77;;;3.73;;
45466;SDS011;31212;49.734;8.490;2023-03-01T04:36:22;9.07;;;4.30;;
45466;SDS011;31212;49.734;8.490;2023-03-01T04:38:51;7.43;;;4.13;;
45466;SDS011;31212;49.734;8.490;2023-03-01T04:41:19;4.07;;;2.53;;
45466;SDS011;31212;49.734;8.490;2023-03-01T04:43:47;9.83;;;4.77;;
45466;SDS011;31212;49.734;8.490;2023-03-01T04:46:15;3.00;;;2.47;;
45466;SDS011;31212;49.734;8.490;2023-03-01T04:48:45;12.63;;;4.43;;
45466;SDS011;31212;49.734;8.490;2023-03-01T04:51:13;16.90;;;5.47;;
45466;SDS011;31212;49.734;8.490;2023-03-01T04:53:40;6.33;;;2.77;;
45466;SDS011;31212;49.734;8.490;2023-03-01T04:56:09;7.33;;;4.80;;
45466;SDS011;31212;49.734;8.490;2023-03-01T04:58:36;10.73;;;3.30;;
45466;SDS011;31212;49.734;8.490;2023-03-01T05:01:07;14.73;;;5.57;;
45466;SDS011;31212;49.734;8.490;2023-03-01T05:03:40;4.73;;;3.40;;
45466;SDS011;31212;49.734;8.490;2023-03-01T05:06:07;5.07;;;2.83;;
45466;SDS011;31212;49.734;8.490;2023-03-01T05:08:36;6.50;;;3.80;;
45466;SDS011;31212;49.734;8.490;2023-03-01T05:11:03;7.93;;;5.07;;
45466;SDS011;31212;49.734;8.490;2023-03-01T05:13:31;9.13;;;3.50;;
45466;SDS011;31212;49.734;8.490;2023-03-01T05:15:59;9.87;;;4.43;;
45466;SDS011;31212;49.734;8.490;2023-03-01T05:18:28;7.17;;;3.73;;
45466;SDS011;31212;49.734;8.490;2023-03-01T05:21:01;3.90;;;2.87;;
45466;SDS011;31212;49.734;8.490;2023-03-01T05:23:29;4.43;;;2.70;;
45466;SDS011;31212;49.734;8.490;2023-03-01T05:25:57;8.50;;;4.70;;
45466;SDS011;31212;49.734;8.490;2023-03-01T05:28:24;10.00;;;4.93;;
45466;SDS011;31212;49.734;8.490;2023-03-01T05:30:52;11.20;;;3.13;;
45466;SDS011;31212;49.734;8.490;2023-03-01T05:33:19;15.87;;;6.47;;
45466;SDS011;31212;49.734;8.490;2023-03-01T05:35:47;14.73;;;5.83;;
45466;SDS011;31212;49.734;8.490;2023-03-01T05:38:14;7.33;;;3.60;;
45466;SDS011;31212;49.734;8.490;2023-03-01T05:40:42;6.13;;;3.47;;
45466;SDS011;31212;49.734;8.490;2023-03-01T05:43:10;7.00;;;3.33;;
45466;SDS011;31212;49.734;8.490;2023-03-01T05:45:37;6.07;;;4.63;;
45466;SDS011;31212;49.734;8.490;2023-03-01T05:48:08;6.33;;;3.23;;
45466;SDS011;31212;49.734;8.490;2023-03-01T05:50:36;7.33;;;3.87;;
45466;SDS011;31212;49.734;8.490;2023-03-01T05:53:05;7.53;;;4.43;;
45466;SDS011;31212;49.734;8.490;2023-03-01T05:55:33;6.17;;;3.57;;
45466;SDS011;31212;49.734;8.490;2023-03-01T05:58:01;13.27;;;4.60;;
45466;SDS011;31212;49.734;8.490;2023-03-01T06:00:28;9.57;;;5.03;;
45466;SDS011;31212;49.734;8.490;2023-03-01T06:02:56;8.33;;;3.40;;
45466;SDS011;31212;49.734;8.490;2023-03-01T06:05:25;5.33;;;3.93;;
45466;SDS011;31212;49.734;8.490;2023-03-01T06:07:53;9.27;;;3.93;;
45466;SDS011;31212;49.734;8.490;2023-03-01T06:10:20;9.20;;;6.43;;
45466;SDS011;31212;49.734;8.490;2023-03-01T06:12:48;19.30;;;4.63;;
45466;SDS011;31212;49.734;8.490;2023-03-01T06:15:15;11.90;;;5.87;;
45466;SDS011;31212;49.734;8.490;2023-03-01T06:17:43;11.03;;;5.27;;
45466;SDS011;31212;49.734;8.490;2023-03-01T06:20:12;8.97;;;4.20;;
45466;SDS011;31212;49.734;8.490;2023-03-01T06:22:41;4.00;;;3.17;;
45466;SDS011;31212;49.734;8.490;2023-03-01T06:25:08;9.13;;;5.23;;
45466;SDS011;31212;49.734;8.490;2023-03-01T06:27:35;11.93;;;4.67;;
45466;SDS011;31212;49.734;8.490;2023-03-01T06:30:02;10.77;;;4.90;;
45466;SDS011;31212;49.734;8.490;2023-03-01T06:32:29;4.63;;;3.53;;
45466;SDS011;31212;49.734;8.490;2023-03-01T06:34:56;12.60;;;5.57;;
45466;SDS011;31212;49.734;8.490;2023-03-01T06:37:23;15.97;;;4.13;;
45466;SDS011;31212;49.734;8.490;2023-03-01T06:39:51;12.50;;;4.60;;
45466;SDS011;31212;49.734;8.490;2023-03-01T06:42:17;9.57;;;4.73;;
45466;SDS011;31212;49.734;8.490;2023-03-01T06:44:44;15.60;;;5.03;;
45466;SDS011;31212;49.734;8.490;2023-03-01T06:47:11;8.47;;;5.60;;
45466;SDS011;31212;49.734;8.490;2023-03-01T06:49:37;10.17;;;4.93;;
45466;SDS011;31212;49.734;8.490;2023-03-01T06:52:03;14.27;;;5.87;;
45466;SDS011;31212;49.734;8.490;2023-03-01T06:54:30;12.17;;;4.57;;
45466;SDS011;31212;49.734;8.490;2023-03-01T06:56:58;6.43;;;4.37;;
45466;SDS011;31212;49.734;8.490;2023-03-01T06:59:24;15.67;;;4.83;;
45466;SDS011;31212;49.734;8.490;2023-03-01T07:01:51;10.90;;;6.67;;
45466;SDS011;31212;49.734;8.490;2023-03-01T07:04:17;10.63;;;5.57;;
45466;SDS011;31212;49.734;8.490;2023-03-01T07:06:44;23.83;;;6.77;;
45466;SDS011;31212;49.734;8.490;2023-03-01T07:09:10;13.30;;;5.37;;
45466;SDS011;31212;49.734;8.490;2023-03-01T07:11:36;12.77;;;4.73;;
45466;SDS011;31212;49.734;8.490;2023-03-01T07:14:05;6.47;;;4.27;;
45466;SDS011;31212;49.734;8.490;2023-03-01T07:16:32;23.90;;;6.77;;
45466;SDS011;31212;49.734;8.490;2023-03-01T07:18:58;10.00;;;4.93;;
45466;SDS011;31212;49.734;8.490;2023-03-01T07:21:24;10.23;;;4.30;;
45466;SDS011;31212;49.734;8.490;2023-03-01T07:23:51;14.07;;;5.70;;
45466;SDS011;31212;49.734;8.490;2023-03-01T07:26:17;8.87;;;5.50;;
45466;SDS011;31212;49.734;8.490;2023-03-01T07:28:44;11.47;;;4.37;;
45466;SDS011;31212;49.734;8.490;2023-03-01T07:31:12;8.87;;;6.80;;
45466;SDS011;31212;49.734;8.490;2023-03-01T07:33:38;9.13;;;4.07;;
45466;SDS011;31212;49.734;8.490;2023-03-01T07:36:05;15.73;;;5.10;;
45466;SDS011;31212;49.734;8.490;2023-03-01T07:38:32;19.88;;;6.28;;
45466;SDS011;31212;49.734;8.490;2023-03-01T07:40:59;10.00;;;5.15;;
45466;SDS011;31212;49.734;8.490;2023-03-01T07:43:27;13.73;;;6.40;;
45466;SDS011;31212;49.734;8.490;2023-03-01T07:45:54;11.80;;;5.82;;
45466;SDS011;31212;49.734;8.490;2023-03-01T07:48:22;12.15;;;5.43;;
45466;SDS011;31212;49.734;8.490;2023-03-01T07:50:48;12.43;;;6.00;;
45466;SDS011;31212;49.734;8.490;2023-03-01T07:53:15;14.32;;;6.50;;
45466;SDS011;31212;49.734;8.490;2023-03-01T07:55:41;11.90;;;6.22;;
45466;SDS011;31212;49.734;8.490;2023-03-01T07:58:07;11.13;;;5.75;;
45466;SDS011;31212;49.734;8.490;2023-03-01T08:00:34;12.13;;;5.95;;
45466;SDS011;31212;49.734;8.490;2023-03-01T08:03:01;10.05;;;5.85;;
45466;SDS011;31212;49.734;8.490;2023-03-01T08:05:29;10.07;;;5.93;;
45466;SDS011;31212;49.734;8.490;2023-03-01T08:07:56;12.68;;;5.85;;
45466;SDS011;31212;49.734;8.490;2023-03-01T08:10:22;11.82;;;5.90;;
45466;SDS011;31212;49.734;8.490;2023-03-01T08:12:50;13.85;;;7.50;;
45466;SDS011;31212;49.734;8.490;2023-03-01T08:15:17;11.48;;;6.60;;
45466;SDS011;31212;49.734;8.490;2023-03-01T08:17:44;11.15;;;6.30;;
45466;SDS011;31212;49.734;8.490;2023-03-01T08:20:11;11.25;;;6.35;;
45466;SDS011;31212;49.734;8.490;2023-03-01T08:22:39;8.95;;;5.55;;
45466;SDS011;31212;49.734;8.490;2023-03-01T08:25:05;13.45;;;6.93;;
45466;SDS011;31212;49.734;8.490;2023-03-01T08:27:32;13.57;;;5.63;;
45466;SDS011;31212;49.734;8.490;2023-03-01T08:29:59;11.13;;;6.13;;
45466;SDS011;31212;49.734;8.490;2023-03-01T08:32:25;12.88;;;6.38;;
45466;SDS011;31212;49.734;8.490;2023-03-01T08:34:52;16.15;;;7.13;;
45466;SDS011;31212;49.734;8.490;2023-03-01T08:37:18;13.20;;;5.85;;
45466;SDS011;31212;49.734;8.490;2023-03-01T08:39:46;12.73;;;6.32;;
45466;SDS011;31212;49.734;8.490;2023-03-01T08:42:12;9.35;;;5.43;;
45466;SDS011;31212;49.734;8.490;2023-03-01T08:44:39;11.98;;;6.00;;
45466;SDS011;31212;49.734;8.490;2023-03-01T08:47:05;12.85;;;5.80;;
45466;SDS011;31212;49.734;8.490;2023-03-01T08:49:32;12.98;;;6.45;;
45466;SDS011;31212;49.734;8.490;2023-03-01T08:51:58;12.30;;;6.07;;
45466;SDS011;31212;49.734;8.490;2023-03-01T08:54:25;12.88;;;6.50;;
45466;SDS011;31212;49.734;8.490;2023-03-01T08:56:52;9.80;;;5.57;;
45466;SDS011;31212;49.734;8.490;2023-03-01T08:59:19;11.45;;;6.18;;
45466;SDS011;31212;49.734;8.490;2023-03-01T09:01:45;12.27;;;6.38;;
45466;SDS011;31212;49.734;8.490;2023-03-01T09:04:12;15.00;;;6.22;;
45466;SDS011;31212;49.734;8.490;2023-03-01T09:06:40;11.63;;;6.53;;
45466;SDS011;31212;49.734;8.490;2023-03-01T09:09:07;12.50;;;6.15;;
45466;SDS011;31212;49.734;8.490;2023-03-01T09:14:07;10.75;;;5.55;;
45466;SDS011;31212;49.734;8.490;2023-03-01T09:16:34;12.52;;;6.60;;
45466;SDS011;31212;49.734;8.490;2023-03-01T09:19:01;13.20;;;6.75;;
45466;SDS011;31212;49.734;8.490;2023-03-01T09:21:29;14.80;;;5.18;;
45466;SDS011;31212;49.734;8.490;2023-03-01T09:23:55;16.95;;;7.65;;
45466;SDS011;31212;49.734;8.490;2023-03-01T09:26:23;10.98;;;5.60;;
45466;SDS011;31212;49.734;8.490;2023-03-01T09:28:51;12.25;;;6.25;;
45466;SDS011;31212;49.734;8.490;2023-03-01T09:31:20;11.90;;;5.85;;
45466;SDS011;31212;49.734;8.490;2023-03-01T09:33:48;13.00;;;6.80;;
45466;SDS011;31212;49.734;8.490;2023-03-01T09:36:16;11.25;;;6.10;;
45466;SDS011;31212;49.734;8.490;2023-03-01T09:38:45;17.13;;;7.22;;
45466;SDS011;31212;49.734;8.490;2023-03-01T09:41:18;9.38;;;6.10;;
45466;SDS011;31212;49.734;8.490;2023-03-01T09:43:59;13.57;;;6.50;;
45466;SDS011;31212;49.734;8.490;2023-03-01T09:46:31;11.40;;;6.63;;
45466;SDS011;31212;49.734;8.490;2023-03-01T09:49:04;11.35;;;6.18;;
45466;SDS011;31212;49.734;8.490;2023-03-01T09:51:36;12.55;;;5.90;;
45466;SDS011;31212;49.734;8.490;2023-03-01T09:54:03;7.60;;;4.63;;
45466;SDS011;31212;49.734;8.490;2023-03-01T09:56:34;12.02;;;5.53;;
45466;SDS011;31212;49.734;8.490;2023-03-01T09:59:08;15.35;;;5.82;;
45466;SDS011;31212;49.734;8.490;2023-03-01T10:01:46;14.95;;;7.18;;
45466;SDS011;31212;49.734;8.490;2023-03-01T10:04:26;16.38;;;6.30;;
45466;SDS011;31212;49.734;8.490;2023-03-01T10:07:05;12.70;;;6.53;;
45466;SDS011;31212;49.734;8.490;2023-03-01T10:09:43;11.70;;;6.45;;
45466;SDS011;31212;49.734;8.490;2023-03-01T10:12:12;11.02;;;6.60;;
45466;SDS011;31212;49.734;8.490;2023-03-01T10:14:43;16.13;;;7.15;;
45466;SDS011;31212;49.734;8.490;2023-03-01T10:17:20;11.43;;;6.03;;
45466;SDS011;31212;49.734;8.490;2023-03-01T10:19:53;15.07;;;7.70;;
45466;SDS011;31212;49.734;8.490;2023-03-01T10:22:22;15.45;;;6.53;;
45466;SDS011;31212;49.734;8.490;2023-03-01T10:24:53;14.85;;;7.55;;
45466;SDS011;31212;49.734;8.490;2023-03-01T10:27:24;14.13;;;6.15;;
45466;SDS011;31212;49.734;8.490;2023-03-01T10:29:54;12.38;;;6.07;;
45466;SDS011;31212;49.734;8.490;2023-03-01T10:32:27;15.38;;;6.90;;
45466;SDS011;31212;49.734;8.490;2023-03-01T10:34:55;14.90;;;7.30;;
45466;SDS011;31212;49.734;8.490;2023-03-01T10:37:22;20.55;;;8.38;;
45466;SDS011;31212;49.734;8.490;2023-03-01T10:39:54;15.02;;;7.10;;
45466;SDS011;31212;49.734;8.490;2023-03-01T10:42:25;12.23;;;6.35;;
45466;SDS011;31212;49.734;8.490;2023-03-01T10:44:53;14.10;;;6.50;;
45466;SDS011;31212;49.734;8.490;2023-03-01T10:47:21;11.73;;;6.93;;
45466;SDS011;31212;49.734;8.490;2023-03-01T10:49:52;10.05;;;5.80;;
45466;SDS011;31212;49.734;8.490;2023-03-01T10:52:21;13.73;;;7.32;;
45466;SDS011;31212;49.734;8.490;2023-03-01T10:54:53;16.40;;;6.47;;
45466;SDS011;31212;49.734;8.490;2023-03-01T10:57:24;17.65;;;7.10;;
45466;SDS011;31212;49.734;8.490;2023-03-01T11:00:00;11.00;;;5.88;;
45466;SDS011;31212;49.734;8.490;2023-03-01T11:02:40;18.67;;;7.57;;
45466;SDS011;31212;49.734;8.490;2023-03-01T11:05:16;14.95;;;7.75;;
45466;SDS011;31212;49.734;8.490;2023-03-01T11:07:46;12.23;;;6.63;;
45466;SDS011;31212;49.734;8.490;2023-03-01T11:10:16;18.35;;;7.30;;
45466;SDS011;31212;49.734;8.490;2023-03-01T11:12:44;13.77;;;7.40;;
45466;SDS011;31212;49.734;8.490;2023-03-01T11:15:19;17.70;;;6.80;;
45466;SDS011;31212;49.734;8.490;2023-03-01T11:17:48;15.63;;;7.68;;
45466;SDS011;31212;49.734;8.490;2023-03-01T11:20:20;15.55;;;7.38;;
45466;SDS011;31212;49.734;8.490;2023-03-01T11:22:53;14.52;;;6.10;;
45466;SDS011;31212;49.734;8.490;2023-03-01T11:25:23;17.58;;;8.50;;
45466;SDS011;31212;49.734;8.490;2023-03-01T11:27:53;17.38;;;7.18;;
45466;SDS011;31212;49.734;8.490;2023-03-01T11:30:21;12.60;;;7.60;;
45466;SDS011;31212;49.734;8.490;2023-03-01T11:32:53;11.38;;;6.88;;
45466;SDS011;31212;49.734;8.490;2023-03-01T11:35:30;17.77;;;7.85;;
45466;SDS011;31212;49.734;8.490;2023-03-01T11:38:03;15.30;;;9.38;;
45466;SDS011;31212;49.734;8.490;2023-03-01T11:40:42;11.02;;;6.82;;
45466;SDS011;31212;49.734;8.490;2023-03-01T11:43:15;17.95;;;7.22;;
45466;SDS011;31212;49.734;8.490;2023-03-01T11:45:50;16.08;;;7.10;;
45466;SDS011;31212;49.734;8.490;2023-03-01T11:48:28;14.30;;;7.10;;
45466;SDS011;31212;49.734;8.490;2023-03-01T11:51:08;16.23;;;7.45;;
45466;SDS011;31212;49.734;8.490;2023-03-01T11:53:46;16.23;;;6.93;;
45466;SDS011;31212;49.734;8.490;2023-03-01T11:56:22;13.70;;;6.82;;
45466;SDS011;31212;49.734;8.490;2023-03-01T11:59:03;13.90;;;6.38;;
45466;SDS011;31212;49.734;8.490;2023-03-01T12:01:39;14.02;;;7.25;;
45466;SDS011;31212;49.734;8.490;2023-03-01T12:04:21;12.82;;;6.43;;
45466;SDS011;31212;49.734;8.490;2023-03-01T12:07:06;16.25;;;6.78;;
45466;SDS011;31212;49.734;8.490;2023-03-01T12:09:43;12.70;;;6.80;;
45466;SDS011;31212;49.734;8.490;2023-03-01T12:12:26;15.90;;;6.20;;
45466;SDS011;31212;49.734;8.490;2023-03-01T12:15:17;15.93;;;7.78;;
45466;SDS011;31212;49.734;8.490;2023-03-01T12:20:54;16.77;;;5.43;;
45466;SDS011;31212;49.734;8.490;2023-03-01T12:23:36;11.38;;;6.00;;
45466;SDS011;31212;49.734;8.490;2023-03-01T12:26:16;9.02;;;5.43;;
45466;SDS011;31212;49.734;8.490;2023-03-01T12:28:52;8.88;;;4.63;;
45466;SDS011;31212;49.734;8.490;2023-03-01T12:31:37;11.35;;;5.50;;
45466;SDS011;31212;49.734;8.490;2023-03-01T12:34:22;12.05;;;5.25;;
45466;SDS011;31212;49.734;8.490;2023-03-01T12:37:08;13.65;;;6.75;;
45466;SDS011;31212;49.734;8.490;2023-03-01T12:39:48;13.77;;;6.43;;
45466;SDS011;31212;49.734;8.490;2023-03-01T12:42:24;14.57;;;6.72;;
45466;SDS011;31212;49.734;8.490;2023-03-01T12:45:12;18.15;;;5.75;;
45466;SDS011;31212;49.734;8.490;2023-03-01T12:47:55;11.90;;;5.43;;
45466;SDS011;31212;49.734;8.490;2023-03-01T12:50:35;11.48;;;6.43;;
45466;SDS011;31212;49.734;8.490;2023-03-01T12:53:07;8.88;;;5.10;;
45466;SDS011;31212;49.734;8.490;2023-03-01T12:55:49;9.68;;;4.72;;
45466;SDS011;31212;49.734;8.490;2023-03-01T12:58:20;10.88;;;5.55;;
45466;SDS011;31212;49.734;8.490;2023-03-01T13:00:57;12.55;;;5.60;;
45466;SDS011;31212;49.734;8.490;2023-03-01T13:03:29;13.30;;;5.05;;
45466;SDS011;31212;49.734;8.490;2023-03-01T13:06:04;10.70;;;4.72;;
45466;SDS011;31212;49.734;8.490;2023-03-01T13:08:37;12.38;;;4.82;;
45466;SDS011;31212;49.734;8.490;2023-03-01T13:11:14;10.07;;;4.65;;
45466;SDS011;31212;49.734;8.490;2023-03-01T13:13:44;8.88;;;5.68;;
45466;SDS011;31212;49.734;8.490;2023-03-01T13:16:21;10.90;;;4.57;;
45466;SDS011;31212;49.734;8.490;2023-03-01T13:19:10;12.50;;;4.82;;
45466;SDS011;31212;49.734;8.490;2023-03-01T13:21:41;10.18;;;5.50;;
45466;SDS011;31212;49.734;8.490;2023-03-01T13:24:26;11.40;;;5.22;;
45466;SDS011;31212;49.734;8.490;2023-03-01T13:27:20;12.38;;;5.45;;
45466;SDS011;31212;49.734;8.490;2023-03-01T13:29:54;8.30;;;5.00;;
45466;SDS011;31212;49.734;8.490;2023-03-01T13:32:22;8.75;;;3.97;;
45466;SDS011;31212;49.734;8.490;2023-03-01T13:34:50;12.27;;;5.15;;
45466;SDS011;31212;49.734;8.490;2023-03-01T13:37:29;9.55;;;4.97;;
45466;SDS011;31212;49.734;8.490;2023-03-01T13:39:58;7.15;;;4.15;;
45466;SDS011;31212;49.734;8.490;2023-03-01T13:42:32;6.68;;;3.67;;
45466;SDS011;31212;49.734;8.490;2023-03-01T13:45:02;14.07;;;4.30;;
45466;SDS011;31212;49.734;8.490;2023-03-01T13:47:32;9.43;;;4.35;;
45466;SDS011;31212;49.734;8.490;2023-03-01T13:50:02;10.32;;;4.97;;
45466;SDS011;31212;49.734;8.490;2023-03-01T13:52:37;12.13;;;5.32;;
45466;SDS011;31212;49.734;8.490;2023-03-01T13:55:06;15.57;;;4.63;;
45466;SDS011;31212;49.734;8.490;2023-03-01T13:57:45;5.30;;;4.13;;
45466;SDS011;31212;49.734;8.490;2023-03-01T14:00:25;8.05;;;4.68;;
45466;SDS011;31212;49.734;8.490;2023-03-01T14:03:03;5.78;;;3.40;;
45466;SDS011;31212;49.734;8.490;2023-03-01T14:05:41;7.47;;;3.53;;
45466;SDS011;31212;49.734;8.490;2023-03-01T14:08:18;7.97;;;4.68;;
45466;SDS011;31212;49.734;8.490;2023-03-01T14:10:51;10.60;;;4.20;;
45466;SDS011;31212;49.734;8.490;2023-03-01T14:13:30;7.88;;;4.45;;
45466;SDS011;31212;49.734;8.490;2023-03-01T14:16:12;12.75;;;5.07;;
45466;SDS011;31212;49.734;8.490;2023-03-01T14:18:51;9.20;;;4.32;;
45466;SDS011;31212;49.734;8.490;2023-03-01T14:21:29;10.27;;;4.90;;
45466;SDS011;31212;49.734;8.490;2023-03-01T14:23:56;9.93;;;5.00;;
45466;SDS011;31212;49.734;8.490;2023-03-01T14:26:24;11.02;;;4.47;;
45466;SDS011;31212;49.734;8.490;2023-03-01T14:28:52;5.20;;;3.58;;
45466;SDS011;31212;49.734;8.490;2023-03-01T14:34:16;6.85;;;3.38;;
45466;SDS011;31212;49.734;8.490;2023-03-01T14:36:46;9.02;;;4.00;;
45466;SDS011;31212;49.734;8.490;2023-03-01T14:39:16;9.32;;;4.50;;
45466;SDS011;31212;49.734;8.490;2023-03-01T14:41:43;10.07;;;5.50;;
45466;SDS011;31212;49.734;8.490;2023-03-01T14:45:00;5.40;;;2.95;;
45466;SDS011;31212;49.734;8.490;2023-03-01T14:47:30;5.40;;;3.47;;
45466;SDS011;31212;49.734;8.490;2023-03-01T14:49:59;10.85;;;4.50;;
45466;SDS011;31212;49.734;8.490;2023-03-01T14:52:31;8.63;;;3.88;;
45466;SDS011;31212;49.734;8.490;2023-03-01T14:55:02;6.32;;;3.95;;
45466;SDS011;31212;49.734;8.490;2023-03-01T14:57:31;9.93;;;4.30;;
45466;SDS011;31212;49.734;8.490;2023-03-01T14:59:59;10.25;;;4.20;;
45466;SDS011;31212;49.734;8.490;2023-03-01T15:02:30;5.68;;;3.88;;
45466;SDS011;31212;49.734;8.490;2023-03-01T15:04:58;7.93;;;4.28;;
45466;SDS011;31212;49.734;8.490;2023-03-01T15:07:28;11.05;;;5.25;;
45466;SDS011;31212;49.734;8.490;2023-03-01T15:09:56;8.50;;;4.00;;
45466;SDS011;31212;49.734;8.490;2023-03-01T15:12:25;8.65;;;3.80;;